sensor_id;sensor_type;location;lat;lon;timestamp;pressure;altitude;pressure_sealevel;temperature;humidity
7614;BME280;3848;42.016;23.098;2023-01-28T00:01:06;96451.59;;;3.35;100.00
7614;BME280;3848;42.016;23.098;2023-01-28T00:03:32;96459.97;;;3.38;100.00
7614;BME280;3848;42.016;23.098;2023-01-28T00:06:03;96452.38;;;3.33;100.00
7614;BME280;3848;42.016;23.098;2023-01-28T00:08:30;96460.00;;;3.42;100.00
7614;BME280;3848;42.016;23.098;2023-01-28T00:10:58;96457.53;;;3.45;100.00
7614;BME280;3848;42.016;23.098;2023-01-28T00:13:25;96465.91;;;3.47;100.00
7614;BME280;3848;42.016;23.098;2023-01-28T00:15:55;96470.88;;;3.41;100.00
7614;BME280;3848;42.016;23.098;2023-01-28T00:18:23;96469.22;;;3.42;100.00
7614;BME280;3848;42.016;23.098;2023-01-28T00:20:57;96463.31;;;3.35;100.00
7614;BME280;3848;42.016;23.098;2023-01-28T00:23:24;96474.09;;;3.29;100.00
7614;BME280;3848;42.016;23.098;2023-01-28T00:25:51;96471.53;;;3.22;100.00
7614;BME280;3848;42.016;23.098;2023-01-28T00:28:19;96473.19;;;3.18;100.00
7614;BME280;3848;42.016;23.098;2023-01-28T00:30:45;96476.53;;;3.20;100.00
7614;BME280;3848;42.016;23.098;2023-01-28T00:33:14;96476.44;;;3.11;100.00
7614;BME280;3848;42.016;23.098;2023-01-28T00:35:40;96483.09;;;3.06;100.00
7614;BME280;3848;42.016;23.098;2023-01-28T00:38:07;96477.22;;;3.04;100.00
7614;BME280;3848;42.016;23.098;2023-01-28T00:40:34;96482.19;;;3.01;100.00
7614;BME280;3848;42.016;23.098;2023-01-28T00:43:01;96490.53;;;2.98;100.00
7614;BME280;3848;42.016;23.098;2023-01-28T00:45:28;96490.50;;;2.95;100.00
7614;BME280;3848;42.016;23.098;2023-01-28T00:47:55;96492.22;;;2.98;100.00
7614;BME280;3848;42.016;23.098;2023-01-28T00:50:23;96495.50;;;2.92;100.00
7614;BME280;3848;42.016;23.098;2023-01-28T00:52:50;96497.19;;;2.93;100.00
7614;BME280;3848;42.016;23.098;2023-01-28T00:55:17;96477.03;;;2.87;100.00
7614;BME280;3848;42.016;23.098;2023-01-28T00:57:44;96498.03;;;2.94;100.00
7614;BME280;3848;42.016;23.098;2023-01-28T01:00:11;96503.91;;;2.96;100.00
7614;BME280;3848;42.016;23.098;2023-01-28T01:02:38;96496.34;;;2.93;100.00
7614;BME280;3848;42.016;23.098;2023-01-28T01:05:06;96502.28;;;3.01;100.00
7614;BME280;3848;42.016;23.098;2023-01-28T01:07:34;96499.78;;;3.02;100.00
7614;BME280;3848;42.016;23.098;2023-01-28T01:10:07;96493.09;;;3.03;100.00
7614;BME280;3848;42.016;23.098;2023-01-28T01:12:34;96500.69;;;3.11;100.00
7614;BME280;3848;42.016;23.098;2023-01-28T01:15:01;96495.63;;;3.08;100.00
7614;BME280;3848;42.016;23.098;2023-01-28T01:17:29;96496.41;;;2.99;100.00
7614;BME280;3848;42.016;23.098;2023-01-28T01:19:56;96493.97;;;3.06;100.00
7614;BME280;3848;42.016;23.098;2023-01-28T01:22:23;96511.63;;;3.14;100.00
7614;BME280;3848;42.016;23.098;2023-01-28T01:24:51;96504.00;;;3.08;100.00
7614;BME280;3848;42.016;23.098;2023-01-28T01:27:18;96506.59;;;3.13;100.00
7614;BME280;3848;42.016;23.098;2023-01-28T01:29:45;96506.59;;;3.13;100.00
7614;BME280;3848;42.016;23.098;2023-01-28T01:32:12;96498.97;;;3.06;100.00
7614;BME280;3848;42.016;23.098;2023-01-28T01:34:39;96509.97;;;3.16;100.00
7614;BME280;3848;42.016;23.098;2023-01-28T01:37:05;96512.53;;;3.22;100.00
7614;BME280;3848;42.016;23.098;2023-01-28T01:39:33;96514.22;;;3.22;100.00
7614;BME280;3848;42.016;23.098;2023-01-28T01:42:01;96510.00;;;3.18;100.00
7614;BME280;3848;42.016;23.098;2023-01-28T01:44:55;96511.69;;;3.20;100.00
7614;BME280;3848;42.016;23.098;2023-01-28T01:47:25;96498.19;;;3.12;100.00
7614;BME280;3848;42.016;23.098;2023-01-28T01:49:54;96511.56;;;3.10;100.00
7614;BME280;3848;42.016;23.098;2023-01-28T01:52:25;96513.25;;;3.11;100.00
7614;BME280;3848;42.016;23.098;2023-01-28T01:54:56;96514.84;;;3.02;100.00
7614;BME280;3848;42.016;23.098;2023-01-28T01:57:30;96518.16;;;3.01;100.00
7614;BME280;3848;42.016;23.098;2023-01-28T01:59:59;96520.72;;;3.06;100.00
7614;BME280;3848;42.016;23.098;2023-01-28T02:02:32;96524.88;;;3.04;100.00
7614;BME280;3848;42.016;23.098;2023-01-28T02:05:02;96522.38;;;3.02;100.00
7614;BME280;3848;42.016;23.098;2023-01-28T02:07:29;96532.34;;;2.98;100.00
7614;BME280;3848;42.016;23.098;2023-01-28T02:09:56;96531.47;;;2.94;100.00
7614;BME280;3848;42.016;23.098;2023-01-28T02:12:27;96532.34;;;2.98;100.00
7614;BME280;3848;42.016;23.098;2023-01-28T02:14:59;96526.50;;;2.97;100.00
7614;BME280;3848;42.016;23.098;2023-01-28T02:17:28;96528.13;;;2.94;100.00
7614;BME280;3848;42.016;23.098;2023-01-28T02:19:58;96524.00;;;2.99;100.00
7614;BME280;3848;42.016;23.098;2023-01-28T02:22:46;96539.88;;;2.96;100.00
7614;BME280;3848;42.016;23.098;2023-01-28T02:25:39;96446.44;;;2.44;100.00
7614;BME280;3848;42.016;23.098;2023-01-28T02:28:16;96540.75;;;3.00;100.00
7614;BME280;3848;42.016;23.098;2023-01-28T02:30:51;96539.00;;;2.94;100.00
7614;BME280;3848;42.016;23.098;2023-01-28T02:33:25;96525.53;;;2.89;100.00
7614;BME280;3848;42.016;23.098;2023-01-28T02:35:55;96523.03;;;2.91;100.00
7614;BME280;3848;42.016;23.098;2023-01-28T02:38:25;96540.72;;;2.97;100.00
7614;BME280;3848;42.016;23.098;2023-01-28T02:40:57;96542.41;;;2.99;100.00
7614;BME280;3848;42.016;23.098;2023-01-28T02:43:36;96544.06;;;2.99;100.00
7614;BME280;3848;42.016;23.098;2023-01-28T02:46:12;96539.94;;;3.04;100.00
7614;BME280;3848;42.016;23.098;2023-01-28T02:48:58;96550.81;;;3.04;100.00
7614;BME280;3848;42.016;23.098;2023-01-28T02:51:33;96542.47;;;3.07;100.00
7614;BME280;3848;42.016;23.098;2023-01-28T02:54:10;96546.72;;;3.11;100.00
7614;BME280;3848;42.016;23.098;2023-01-28T02:56:43;96528.25;;;3.04;100.00
7614;BME280;3848;42.016;23.098;2023-01-28T02:59:17;96531.53;;;2.99;100.00
7614;BME280;3848;42.016;23.098;2023-01-28T03:02:07;96549.16;;;3.06;100.00
7614;BME280;3848;42.016;23.098;2023-01-28T03:04:38;96545.81;;;3.04;100.00
7614;BME280;3848;42.016;23.098;2023-01-28T03:07:08;96556.69;;;3.06;100.00
7614;BME280;3848;42.016;23.098;2023-01-28T03:09:38;96545.81;;;3.04;100.00
7614;BME280;3848;42.016;23.098;2023-01-28T03:12:07;96564.34;;;3.16;100.00
7614;BME280;3848;42.016;23.098;2023-01-28T03:14:56;96556.72;;;3.10;100.00
7614;BME280;3848;42.016;23.098;2023-01-28T03:17:44;96564.25;;;3.08;100.00
7614;BME280;3848;42.016;23.098;2023-01-28T03:20:34;96566.69;;;3.03;100.00
7614;BME280;3848;42.016;23.098;2023-01-28T03:23:22;96562.50;;;3.01;100.00
7614;BME280;3848;42.016;23.098;2023-01-28T03:26:09;96567.47;;;2.96;100.00
7614;BME280;3848;42.016;23.098;2023-01-28T03:29:00;96564.03;;;2.91;100.00
7614;BME280;3848;42.016;23.098;2023-01-28T03:31:48;96571.59;;;2.93;100.00
7614;BME280;3848;42.016;23.098;2023-01-28T03:34:33;96566.63;;;2.96;100.00
7614;BME280;3848;42.016;23.098;2023-01-28T03:37:17;96566.53;;;2.90;100.00
7614;BME280;3848;42.016;23.098;2023-01-28T03:39:44;96568.16;;;2.88;100.00
7614;BME280;3848;42.016;23.098;2023-01-28T03:42:13;96568.97;;;2.85;100.00
7614;BME280;3848;42.016;23.098;2023-01-28T03:44:40;96561.41;;;2.82;100.00
7614;BME280;3848;42.016;23.098;2023-01-28T03:47:20;96566.38;;;2.78;100.00
7614;BME280;3848;42.016;23.098;2023-01-28T03:49:49;96572.25;;;2.78;100.00
7614;BME280;3848;42.016;23.098;2023-01-28T03:52:17;96553.72;;;2.70;100.00
7614;BME280;3848;42.016;23.098;2023-01-28T03:54:44;96563.91;;;2.79;100.00
7614;BME280;3848;42.016;23.098;2023-01-28T03:57:13;96570.69;;;2.89;100.00
7614;BME280;3848;42.016;23.098;2023-01-28T03:59:40;96559.69;;;2.78;100.00
7614;BME280;3848;42.016;23.098;2023-01-28T04:02:08;96568.94;;;2.82;100.00
7614;BME280;3848;42.016;23.098;2023-01-28T04:04:38;96568.94;;;2.81;100.00
7614;BME280;3848;42.016;23.098;2023-01-28T04:07:05;96532.78;;;2.65;100.00
7614;BME280;3848;42.016;23.098;2023-01-28T04:09:33;96580.84;;;2.95;100.00
7614;BME280;3848;42.016;23.098;2023-01-28T04:12:00;96581.75;;;3.02;100.00
7614;BME280;3848;42.016;23.098;2023-01-28T04:14:27;96580.03;;;2.98;100.00
7614;BME280;3848;42.016;23.098;2023-01-28T04:16:55;96579.22;;;3.00;100.00
7614;BME280;3848;42.016;23.098;2023-01-28T04:19:23;96584.28;;;3.05;100.00
7614;BME280;3848;42.016;23.098;2023-01-28T04:21:51;96583.47;;;3.06;100.00
7614;BME280;3848;42.016;23.098;2023-01-28T04:24:19;96570.84;;;3.00;100.00
7614;BME280;3848;42.016;23.098;2023-01-28T04:26:46;96580.88;;;2.98;100.00
7614;BME280;3848;42.016;23.098;2023-01-28T04:29:13;96583.47;;;3.06;100.00
7614;BME280;3848;42.016;23.098;2023-01-28T04:31:40;96582.63;;;3.05;100.00
7614;BME280;3848;42.016;23.098;2023-01-28T04:34:06;96589.31;;;3.05;100.00
7614;BME280;3848;42.016;23.098;2023-01-28T04:36:34;96605.19;;;3.05;100.00
7614;BME280;3848;42.016;23.098;2023-01-28T04:39:02;96596.03;;;3.08;100.00
7614;BME280;3848;42.016;23.098;2023-01-28T04:41:29;96602.72;;;3.09;100.00
7614;BME280;3848;42.016;23.098;2023-01-28T04:43:56;96606.88;;;3.05;100.00
7614;BME280;3848;42.016;23.098;2023-01-28T04:46:23;96606.06;;;3.08;100.00
7614;BME280;3848;42.016;23.098;2023-01-28T04:48:49;96596.81;;;3.03;100.00
7614;BME280;3848;42.016;23.098;2023-01-28T04:51:16;96604.31;;;3.00;100.00
7614;BME280;3848;42.016;23.098;2023-01-28T04:53:43;96602.59;;;2.96;100.00
7614;BME280;3848;42.016;23.098;2023-01-28T04:56:11;96618.53;;;3.00;100.00
7614;BME280;3848;42.016;23.098;2023-01-28T04:58:38;96606.00;;;3.01;100.00
7614;BME280;3848;42.016;23.098;2023-01-28T05:01:04;96588.19;;;2.83;100.00
7614;BME280;3848;42.016;23.098;2023-01-28T05:03:31;96620.19;;;2.99;100.00
7614;BME280;3848;42.016;23.098;2023-01-28T05:05:58;96620.97;;;2.94;100.00
7614;BME280;3848;42.016;23.098;2023-01-28T05:08:25;96624.31;;;2.96;100.00
7614;BME280;3848;42.016;23.098;2023-01-28T05:10:51;96620.97;;;2.95;100.00
7614;BME280;3848;42.016;23.098;2023-01-28T05:13:20;96625.91;;;2.91;100.00
7614;BME280;3848;42.016;23.098;2023-01-28T05:15:50;96621.69;;;2.88;100.00
7614;BME280;3848;42.016;23.098;2023-01-28T05:18:18;96630.75;;;2.77;100.00
7614;BME280;3848;42.016;23.098;2023-01-28T05:20:44;96646.66;;;2.79;100.00
7614;BME280;3848;42.016;23.098;2023-01-28T05:23:11;96641.56;;;2.71;100.00
7614;BME280;3848;42.016;23.098;2023-01-28T05:25:38;96645.81;;;2.77;100.00
7614;BME280;3848;42.016;23.098;2023-01-28T05:28:05;96633.06;;;2.63;100.00
7614;BME280;3848;42.016;23.098;2023-01-28T05:30:33;96637.38;;;2.72;100.00
7614;BME280;3848;42.016;23.098;2023-01-28T05:32:59;96657.44;;;2.72;100.00
7614;BME280;3848;42.016;23.098;2023-01-28T05:35:26;96635.50;;;2.59;100.00
7614;BME280;3848;42.016;23.098;2023-01-28T05:37:53;96660.72;;;2.68;100.00
7614;BME280;3848;42.016;23.098;2023-01-28T05:40:20;96670.69;;;2.65;100.00
7614;BME280;3848;42.016;23.098;2023-01-28T05:42:47;96659.78;;;2.61;100.00
7614;BME280;3848;42.016;23.098;2023-01-28T05:45:14;96671.47;;;2.61;100.00
7614;BME280;3848;42.016;23.098;2023-01-28T05:47:42;96676.50;;;2.62;100.00
7614;BME280;3848;42.016;23.098;2023-01-28T05:50:11;96635.13;;;2.34;100.00
7614;BME280;3848;42.016;23.098;2023-01-28T05:52:38;96688.28;;;2.68;100.00
7614;BME280;3848;42.016;23.098;2023-01-28T05:55:06;96692.50;;;2.69;100.00
7614;BME280;3848;42.016;23.098;2023-01-28T05:57:33;96690.91;;;2.74;100.00
7614;BME280;3848;42.016;23.098;2023-01-28T05:59:59;96687.53;;;2.72;100.00
7614;BME280;3848;42.016;23.098;2023-01-28T06:02:26;96689.97;;;2.67;100.00
7614;BME280;3848;42.016;23.098;2023-01-28T06:04:54;96685.75;;;2.65;100.00
7614;BME280;3848;42.016;23.098;2023-01-28T06:07:21;96571.84;;;1.93;100.00
7614;BME280;3848;42.016;23.098;2023-01-28T06:09:48;96697.47;;;2.66;100.00
7614;BME280;3848;42.016;23.098;2023-01-28T06:12:15;96707.47;;;2.64;100.00
7614;BME280;3848;42.016;23.098;2023-01-28T06:14:42;96706.66;;;2.65;100.00
7614;BME280;3848;42.016;23.098;2023-01-28T06:17:09;96712.63;;;2.72;100.00
7614;BME280;3848;42.016;23.098;2023-01-28T06:19:36;96715.06;;;2.69;100.00
7614;BME280;3848;42.016;23.098;2023-01-28T06:22:04;96714.31;;;2.73;100.00
7614;BME280;3848;42.016;23.098;2023-01-28T06:24:30;96719.44;;;2.81;100.00
7614;BME280;3848;42.016;23.098;2023-01-28T06:26:57;96721.72;;;2.67;100.00
7614;BME280;3848;42.016;23.098;2023-01-28T06:29:24;96729.34;;;2.71;100.00
7614;BME280;3848;42.016;23.098;2023-01-28T06:31:51;96729.38;;;2.73;100.00
7614;BME280;3848;42.016;23.098;2023-01-28T06:34:18;96737.78;;;2.78;100.00
7614;BME280;3848;42.016;23.098;2023-01-28T06:36:45;96739.50;;;2.81;100.00
7614;BME280;3848;42.016;23.098;2023-01-28T06:39:13;96752.06;;;2.82;100.00
7614;BME280;3848;42.016;23.098;2023-01-28T06:41:40;96742.97;;;2.89;100.00
7614;BME280;3848;42.016;23.098;2023-01-28T06:44:06;96759.81;;;2.94;100.00
7614;BME280;3848;42.016;23.098;2023-01-28T06:46:33;96755.59;;;2.92;100.00
7614;BME280;3848;42.016;23.098;2023-01-28T06:49:00;96763.91;;;2.91;100.00
7614;BME280;3848;42.016;23.098;2023-01-28T06:51:27;96744.47;;;2.76;100.00
7614;BME280;3848;42.016;23.098;2023-01-28T06:53:54;96767.25;;;2.91;100.00
7614;BME280;3848;42.016;23.098;2023-01-28T06:56:22;96771.50;;;2.94;100.00
7614;BME280;3848;42.016;23.098;2023-01-28T06:58:49;96764.84;;;2.96;100.00
7614;BME280;3848;42.016;23.098;2023-01-28T07:01:15;96769.88;;;2.97;100.00
7614;BME280;3848;42.016;23.098;2023-01-28T07:03:42;96772.31;;;2.93;100.00
7614;BME280;3848;42.016;23.098;2023-01-28T07:06:09;96781.50;;;2.92;100.00
7614;BME280;3848;42.016;23.098;2023-01-28T07:08:36;96781.53;;;2.94;100.00
7614;BME280;3848;42.016;23.098;2023-01-28T07:11:04;96783.97;;;2.91;100.00
7614;BME280;3848;42.016;23.098;2023-01-28T07:13:33;96789.13;;;2.97;100.00
7614;BME280;3848;42.016;23.098;2023-01-28T07:16:00;96790.78;;;2.96;100.00
7614;BME280;3848;42.016;23.098;2023-01-28T07:18:26;96785.63;;;2.89;100.00
7614;BME280;3848;42.016;23.098;2023-01-28T07:20:53;96792.47;;;2.97;100.00
7614;BME280;3848;42.016;23.098;2023-01-28T07:23:20;96802.53;;;2.99;100.00
7614;BME280;3848;42.016;23.098;2023-01-28T07:25:48;96808.41;;;3.01;100.00
7614;BME280;3848;42.016;23.098;2023-01-28T07:28:14;96809.38;;;3.11;100.00
7614;BME280;3848;42.016;23.098;2023-01-28T07:30:48;96725.72;;;2.56;100.00
7614;BME280;3848;42.016;23.098;2023-01-28T07:33:16;96810.38;;;3.19;100.00
7614;BME280;3848;42.016;23.098;2023-01-28T07:35:43;96812.06;;;3.20;100.00
7614;BME280;3848;42.016;23.098;2023-01-28T07:38:09;96817.09;;;3.21;100.00
7614;BME280;3848;42.016;23.098;2023-01-28T07:40:36;96825.50;;;3.25;100.00
7614;BME280;3848;42.016;23.098;2023-01-28T07:43:03;96818.03;;;3.28;100.00
7614;BME280;3848;42.016;23.098;2023-01-28T07:45:32;96809.41;;;3.12;100.00
7614;BME280;3848;42.016;23.098;2023-01-28T07:48:02;96839.78;;;3.29;100.00
7614;BME280;3848;42.016;23.098;2023-01-28T07:50:31;96836.38;;;3.24;100.00
7614;BME280;3848;42.016;23.098;2023-01-28T07:53:01;96838.88;;;3.24;100.00
7614;BME280;3848;42.016;23.098;2023-01-28T07:55:28;96848.13;;;3.26;100.00
7614;BME280;3848;42.016;23.098;2023-01-28T07:57:56;96833.78;;;3.18;100.00
7614;BME280;3848;42.016;23.098;2023-01-28T08:00:26;96844.78;;;3.27;100.00
7614;BME280;3848;42.016;23.098;2023-01-28T08:02:58;96850.59;;;3.23;100.00
7614;BME280;3848;42.016;23.098;2023-01-28T08:05:35;96842.19;;;3.20;100.00
7614;BME280;3848;42.016;23.098;2023-01-28T08:08:04;96836.09;;;3.07;100.00
7614;BME280;3848;42.016;23.098;2023-01-28T08:10:31;96839.53;;;3.12;100.00
7614;BME280;3848;42.016;23.098;2023-01-28T08:12:58;96855.63;;;3.23;100.00
7614;BME280;3848;42.016;23.098;2023-01-28T08:15:25;96855.72;;;3.31;100.00
7614;BME280;3848;42.016;23.098;2023-01-28T08:17:53;96860.03;;;3.36;100.00
7614;BME280;3848;42.016;23.098;2023-01-28T08:20:20;96855.94;;;3.45;100.00
7614;BME280;3848;42.016;23.098;2023-01-28T08:22:49;96856.94;;;3.54;100.00
7614;BME280;3848;42.016;23.098;2023-01-28T08:25:16;96867.94;;;3.62;100.00
7614;BME280;3848;42.016;23.098;2023-01-28T08:27:42;96858.72;;;3.63;100.00
7614;BME280;3848;42.016;23.098;2023-01-28T08:30:10;96849.56;;;3.66;100.00
7614;BME280;3848;42.016;23.098;2023-01-28T08:32:37;96855.50;;;3.73;100.00
7614;BME280;3848;42.016;23.098;2023-01-28T08:35:04;96866.56;;;3.84;100.00
7614;BME280;3848;42.016;23.098;2023-01-28T08:37:32;96865.59;;;3.75;100.00
7614;BME280;3848;42.016;23.098;2023-01-28T08:40:00;96847.16;;;3.74;100.00
7614;BME280;3848;42.016;23.098;2023-01-28T08:42:27;96876.53;;;3.78;100.00
7614;BME280;3848;42.016;23.098;2023-01-28T08:44:53;96865.69;;;3.79;100.00
7614;BME280;3848;42.016;23.098;2023-01-28T08:47:20;96869.91;;;3.82;100.00
7614;BME280;3848;42.016;23.098;2023-01-28T08:49:47;96871.59;;;3.84;100.00
7614;BME280;3848;42.016;23.098;2023-01-28T08:52:14;96851.56;;;3.89;100.00
7614;BME280;3848;42.016;23.098;2023-01-28T08:54:41;96870.94;;;3.96;100.00
7614;BME280;3848;42.016;23.098;2023-01-28T08:57:09;96874.28;;;3.96;100.00
7614;BME280;3848;42.016;23.098;2023-01-28T08:59:35;96875.97;;;3.96;100.00
7614;BME280;3848;42.016;23.098;2023-01-28T09:02:05;96868.47;;;4.01;100.00
7614;BME280;3848;42.016;23.098;2023-01-28T09:04:32;96873.56;;;4.07;100.00
7614;BME280;3848;42.016;23.098;2023-01-28T09:06:58;96873.47;;;3.99;100.00
7614;BME280;3848;42.016;23.098;2023-01-28T09:09:26;96884.50;;;4.09;100.00
7614;BME280;3848;42.016;23.098;2023-01-28T09:11:53;96880.31;;;4.09;100.00
7614;BME280;3848;42.016;23.098;2023-01-28T09:14:21;96883.03;;;4.26;100.00
7614;BME280;3848;42.016;23.098;2023-01-28T09:16:48;96883.81;;;4.20;100.00
7614;BME280;3848;42.016;23.098;2023-01-28T09:19:14;96819.06;;;4.01;100.00
7614;BME280;3848;42.016;23.098;2023-01-28T09:21:41;96878.25;;;4.46;100.00
7614;BME280;3848;42.016;23.098;2023-01-28T09:24:09;96872.56;;;4.62;100.00
7614;BME280;3848;42.016;23.098;2023-01-28T09:26:37;96869.34;;;4.75;100.00
7614;BME280;3848;42.016;23.098;2023-01-28T09:29:03;96805.28;;;4.43;100.00
7614;BME280;3848;42.016;23.098;2023-01-28T09:31:32;96873.66;;;4.87;100.00
7614;BME280;3848;42.016;23.098;2023-01-28T09:33:58;96875.38;;;4.89;100.00
7614;BME280;3848;42.016;23.098;2023-01-28T09:36:25;96869.53;;;4.94;100.00
7614;BME280;3848;42.016;23.098;2023-01-28T09:38:52;96874.66;;;5.03;100.00
7614;BME280;3848;42.016;23.098;2023-01-28T09:41:24;96874.56;;;4.94;100.00
7614;BME280;3848;42.016;23.098;2023-01-28T09:44:20;96872.03;;;4.92;100.00
7614;BME280;3848;42.016;23.098;2023-01-28T09:46:59;96864.44;;;4.87;100.00
7614;BME280;3848;42.016;23.098;2023-01-28T09:49:32;96862.75;;;4.86;100.00
7614;BME280;3848;42.016;23.098;2023-01-28T09:51:59;96864.44;;;4.87;100.00
7614;BME280;3848;42.016;23.098;2023-01-28T09:54:32;96859.34;;;4.81;100.00
7614;BME280;3848;42.016;23.098;2023-01-28T09:57:03;96829.03;;;4.69;100.00
7614;BME280;3848;42.016;23.098;2023-01-28T09:59:34;96862.00;;;4.95;100.00
7614;BME280;3848;42.016;23.098;2023-01-28T10:02:18;96860.28;;;4.93;100.00
7614;BME280;3848;42.016;23.098;2023-01-28T10:04:57;96849.34;;;4.87;100.00
7614;BME280;3848;42.016;23.098;2023-01-28T10:07:34;96857.78;;;4.96;100.00
7614;BME280;3848;42.016;23.098;2023-01-28T10:10:09;96851.06;;;4.92;100.00
7614;BME280;3848;42.016;23.098;2023-01-28T10:12:51;96851.06;;;4.92;100.00
7614;BME280;3848;42.016;23.098;2023-01-28T10:18:41;96807.41;;;4.89;100.00
7614;BME280;3848;42.016;23.098;2023-01-28T10:21:12;96847.97;;;5.23;100.00
7614;BME280;3848;42.016;23.098;2023-01-28T10:23:47;96844.63;;;5.24;100.00
7614;BME280;3848;42.016;23.098;2023-01-28T10:26:22;96841.28;;;5.27;100.00
7614;BME280;3848;42.016;23.098;2023-01-28T10:28:53;96836.25;;;5.28;100.00
7614;BME280;3848;42.016;23.098;2023-01-28T10:31:22;96846.25;;;5.19;100.00
7614;BME280;3848;42.016;23.098;2023-01-28T10:33:51;96839.59;;;5.26;100.00
7614;BME280;3848;42.016;23.098;2023-01-28T10:36:18;96847.16;;;5.26;100.00
7614;BME280;3848;42.016;23.098;2023-01-28T10:38:45;96843.84;;;5.33;100.00
7614;BME280;3848;42.016;23.098;2023-01-28T10:41:17;96834.66;;;5.38;100.00
7614;BME280;3848;42.016;23.098;2023-01-28T10:43:47;96843.09;;;5.41;100.00
7614;BME280;3848;42.016;23.098;2023-01-28T10:46:17;96836.44;;;5.56;100.00
7614;BME280;3848;42.016;23.098;2023-01-28T10:48:47;96839.09;;;5.74;100.00
7614;BME280;3848;42.016;23.098;2023-01-28T10:51:31;96830.00;;;5.94;100.00
7614;BME280;3848;42.016;23.098;2023-01-28T10:53:58;96816.56;;;5.95;100.00
7614;BME280;3848;42.016;23.098;2023-01-28T10:56:27;96819.16;;;6.09;100.00
7614;BME280;3848;42.016;23.098;2023-01-28T10:58:59;96819.16;;;6.15;100.00
7614;BME280;3848;42.016;23.098;2023-01-28T11:01:38;96825.06;;;6.16;100.00
7614;BME280;3848;42.016;23.098;2023-01-28T11:04:12;96808.25;;;6.18;100.00
7614;BME280;3848;42.016;23.098;2023-01-28T11:06:51;96815.81;;;6.16;100.00
7614;BME280;3848;42.016;23.098;2023-01-28T11:09:20;96817.50;;;6.20;100.00
7614;BME280;3848;42.016;23.098;2023-01-28T11:11:47;96805.72;;;6.18;100.00
7614;BME280;3848;42.016;23.098;2023-01-28T11:14:19;96816.66;;;6.23;100.00
7614;BME280;3848;42.016;23.098;2023-01-28T11:16:47;96811.66;;;6.32;100.00
7614;BME280;3848;42.016;23.098;2023-01-28T11:19:14;96814.19;;;6.38;100.00
7614;BME280;3848;42.016;23.098;2023-01-28T11:21:52;96814.25;;;6.52;100.00
7614;BME280;3848;42.016;23.098;2023-01-28T11:24:22;96807.53;;;6.52;100.00
7614;BME280;3848;42.016;23.098;2023-01-28T11:26:53;96809.22;;;6.55;100.00
7614;BME280;3848;42.016;23.098;2023-01-28T11:29:24;96805.84;;;6.48;100.00
7614;BME280;3848;42.016;23.098;2023-01-28T11:31:52;96810.88;;;6.48;100.00
7614;BME280;3848;42.016;23.098;2023-01-28T11:34:19;96805.84;;;6.50;100.00
7614;BME280;3848;42.016;23.098;2023-01-28T11:36:53;96801.63;;;6.56;100.00
7614;BME280;3848;42.016;23.098;2023-01-28T11:39:22;96797.44;;;6.66;100.00
7614;BME280;3848;42.016;23.098;2023-01-28T11:41:51;96800.84;;;6.71;100.00
7614;BME280;3848;42.016;23.098;2023-01-28T11:44:19;96797.44;;;6.57;100.00
7614;BME280;3848;42.016;23.098;2023-01-28T11:46:56;96801.63;;;6.59;100.00
7614;BME280;3848;42.016;23.098;2023-01-28T11:49:35;96799.16;;;6.71;100.00
7614;BME280;3848;42.016;23.098;2023-01-28T11:52:13;96789.06;;;6.68;100.00
7614;BME280;3848;42.016;23.098;2023-01-28T11:54:55;96797.47;;;6.83;100.00
7614;BME280;3848;42.016;23.098;2023-01-28T11:57:30;96800.03;;;6.87;100.00
7614;BME280;3848;42.016;23.098;2023-01-28T12:00:27;96788.22;;;6.66;100.00
7614;BME280;3848;42.016;23.098;2023-01-28T12:03:10;96792.41;;;6.67;100.00
7614;BME280;3848;42.016;23.098;2023-01-28T12:05:47;96786.50;;;6.56;100.00
7614;BME280;3848;42.016;23.098;2023-01-28T12:08:20;96794.06;;;6.52;100.00
7614;BME280;3848;42.016;23.098;2023-01-28T12:14:13;96799.06;;;6.41;100.00
7614;BME280;3848;42.016;23.098;2023-01-28T12:17:04;96790.66;;;6.33;100.00
7614;BME280;3848;42.016;23.098;2023-01-28T12:19:53;96795.63;;;6.22;100.00
7614;BME280;3848;42.016;23.098;2023-01-28T12:22:45;96798.16;;;6.24;100.00
7614;BME280;3848;42.016;23.098;2023-01-28T12:25:27;96802.34;;;6.17;100.00
7614;BME280;3848;42.016;23.098;2023-01-28T12:28:02;96803.16;;;6.07;100.00
7614;BME280;3848;42.016;23.098;2023-01-28T12:31:03;96799.81;;;6.06;100.00
7614;BME280;3848;42.016;23.098;2023-01-28T12:33:53;96809.00;;;6.03;100.00
7614;BME280;3848;42.016;23.098;2023-01-28T12:36:31;96809.00;;;6.00;100.00
7614;BME280;3848;42.016;23.098;2023-01-28T12:39:07;96819.91;;;5.94;100.00
7614;BME280;3848;42.016;23.098;2023-01-28T12:41:41;96819.00;;;5.86;100.00
7614;BME280;3848;42.016;23.098;2023-01-28T12:44:12;96824.00;;;5.80;100.00
7614;BME280;3848;42.016;23.098;2023-01-28T12:46:44;96822.28;;;5.71;100.00
7614;BME280;3848;42.016;23.098;2023-01-28T12:49:16;96818.84;;;5.62;100.00
7614;BME280;3848;42.016;23.098;2023-01-28T12:51:51;96775.84;;;5.37;100.00
7614;BME280;3848;42.016;23.098;2023-01-28T12:54:23;96811.28;;;5.59;100.00
7614;BME280;3848;42.016;23.098;2023-01-28T12:56:55;96828.97;;;5.68;100.00
7614;BME280;3848;42.016;23.098;2023-01-28T12:59:27;96833.19;;;5.66;100.00
7614;BME280;3848;42.016;23.098;2023-01-28T13:02:03;96832.34;;;5.65;100.00
7614;BME280;3848;42.016;23.098;2023-01-28T13:04:36;96830.56;;;5.54;100.00
7614;BME280;3848;42.016;23.098;2023-01-28T13:07:08;96837.25;;;5.50;100.00
7614;BME280;3848;42.016;23.098;2023-01-28T13:09:42;96842.28;;;5.47;100.00
7614;BME280;3848;42.016;23.098;2023-01-28T13:12:12;96838.94;;;5.49;100.00
7614;BME280;3848;42.016;23.098;2023-01-28T13:14:40;96847.34;;;5.48;100.00
7614;BME280;3848;42.016;23.098;2023-01-28T13:17:08;96843.09;;;5.43;100.00
7614;BME280;3848;42.016;23.098;2023-01-28T13:19:37;96851.50;;;5.43;100.00
7614;BME280;3848;42.016;23.098;2023-01-28T13:22:21;96849.84;;;5.45;100.00
7614;BME280;3848;42.016;23.098;2023-01-28T13:24:51;96857.41;;;5.50;100.00
7614;BME280;3848;42.016;23.098;2023-01-28T13:27:23;96862.44;;;5.45;100.00
7614;BME280;3848;42.016;23.098;2023-01-28T13:30:01;96859.94;;;5.48;100.00
7614;BME280;3848;42.016;23.098;2023-01-28T13:32:31;96865.81;;;5.47;100.00
7614;BME280;3848;42.016;23.098;2023-01-28T13:35:01;96864.94;;;5.45;100.00